Time;durP1;ratioP1;P1;durP2;ratioP2;P2;SDS_P1;SDS_P2;PMS_P1;PMS_P2;Temp;Humidity;BMP_temperature;BMP_pressure;BME280_temperature;BME280_humidity;BME280_pressure;Samples;Min_cycle;Max_cycle;Signal;HPM_P1;HPM_P2
2023/01/21 00:00:59;;;;;;;6.85;6.13;;;;;;;2.63;100.00;96542.78;5045033;28;20049;-58
2023/01/21 00:03:25;;;;;;;0.40;0.40;;;;;;;2.60;100.00;96537.97;5044928;28;20053;-60
2023/01/21 00:05:52;;;;;;;0.38;0.38;;;;;;;2.51;100.00;96518.09;5045805;28;20063;-58
2023/01/21 00:08:18;;;;;;;0.40;0.40;;;;;;;2.57;100.00;96549.56;5045047;28;20490;-61
2023/01/21 00:10:45;;;;;;;0.60;0.60;;;;;;;2.48;100.00;96559.75;5043673;28;20486;-57
2023/01/21 00:13:12;;;;;;;0.40;0.40;;;;;;;2.56;100.00;96569.84;5044394;28;20045;-61
2023/01/21 00:15:38;;;;;;;0.35;0.35;;;;;;;2.52;100.00;96557.94;5044906;28;20067;-60
2023/01/21 00:18:06;;;;;;;0.80;0.80;;;;;;;2.42;100.00;96552.88;5044897;28;20056;-59
2023/01/21 00:20:33;;;;;;;0.40;0.40;;;;;;;0.06;100.00;96168.69;5044628;28;20715;-61
2023/01/21 00:22:59;;;;;;;1.25;1.25;;;;;;;2.25;100.00;96531.09;5045094;28;20134;-60
2023/01/21 00:25:26;;;;;;;0.40;0.40;;;;;;;1.92;100.00;96478.25;5059755;28;20129;-60
2023/01/21 00:27:53;;;;;;;0.38;0.38;;;;;;;2.40;100.00;96560.59;5024466;28;20050;-60
2023/01/21 00:30:20;;;;;;;0.40;0.40;;;;;;;2.40;100.00;96550.44;5024648;28;20506;-60
2023/01/21 00:32:47;;;;;;;0.35;0.35;;;;;;;2.43;100.00;96549.00;5013683;28;20080;-58
2023/01/21 00:35:14;;;;;;;0.32;0.32;;;;;;;2.48;100.00;96557.03;5018740;28;20527;-56
2023/01/21 00:37:41;;;;;;;1.50;1.50;;;;;;;2.39;100.00;96559.78;5023517;28;20164;-60
2023/01/21 00:40:08;;;;;;;0.40;0.40;;;;;;;1.96;100.00;96479.22;5024363;28;20057;-57
2023/01/21 00:42:34;;;;;;;0.40;0.40;;;;;;;2.15;100.00;96504.19;5024637;28;20087;-61
2023/01/21 00:45:01;;;;;;;0.30;0.30;;;;;;;1.94;100.00;96482.28;5024226;28;20158;-60
2023/01/21 00:47:28;;;;;;;0.30;0.30;;;;;;;1.92;100.00;96478.25;5024589;28;20115;-56
2023/01/21 00:49:54;;;;;;;0.38;0.38;;;;;;;2.40;100.00;96552.41;5032468;28;20053;-56
2023/01/21 00:52:21;;;;;;;0.40;0.40;;;;;;;2.41;100.00;96562.19;5044225;28;20080;-56
2023/01/21 00:54:48;;;;;;;0.30;0.30;;;;;;;2.29;100.00;96549.22;5036629;28;20053;-60
2023/01/21 00:57:15;;;;;;;0.40;0.40;;;;;;;1.75;100.00;96472.88;5024097;28;20057;-58
2023/01/21 00:59:41;;;;;;;0.38;0.38;;;;;;;2.37;100.00;96566.72;5019608;28;20430;-58
2023/01/21 01:02:09;;;;;;;0.40;0.40;;;;;;;2.51;100.00;96573.53;5004318;28;20117;-57
2023/01/21 01:04:35;;;;;;;0.40;0.40;;;;;;;2.08;100.00;96531.19;5002963;28;20449;-60
2023/01/21 01:07:02;;;;;;;2.90;0.75;;;;;;;1.83;100.00;96502.88;5019064;28;20057;-57
2023/01/21 01:09:29;;;;;;;0.40;0.40;;;;;;;1.95;100.00;96526.75;5004422;28;20046;-57
2023/01/21 01:11:56;;;;;;;2.47;1.02;;;;;;;2.34;100.00;96586.53;5004194;28;20523;-57
2023/01/21 01:14:23;;;;;;;0.60;0.60;;;;;;;2.04;100.00;96511.13;5013379;28;20578;-59
2023/01/21 01:16:49;;;;;;;1.25;1.23;;;;;;;2.40;100.00;96577.00;5026577;28;20085;-61
2023/01/21 01:19:16;;;;;;;0.40;0.40;;;;;;;1.82;100.00;96500.47;5028235;28;20081;-57
2023/01/21 01:21:42;;;;;;;1.98;1.88;;;;;;;2.31;100.00;96584.44;5028192;28;20045;-59
2023/01/21 01:24:09;;;;;;;0.40;0.40;;;;;;;2.33;100.00;96593.09;5028107;28;20122;-60
2023/01/21 01:26:36;;;;;;;0.98;0.88;;;;;;;2.25;100.00;96591.19;5046366;28;20088;-56
2023/01/21 01:29:04;;;;;;;0.40;0.40;;;;;;;2.21;100.00;96582.06;5068129;28;20052;-58
2023/01/21 01:31:30;;;;;;;1.45;0.60;;;;;;;2.15;100.00;96581.44;5067579;28;20056;-60
2023/01/21 01:33:57;;;;;;;0.50;0.50;;;;;;;2.14;100.00;96579.03;5068082;28;20114;-57
2023/01/21 01:36:24;;;;;;;0.40;0.40;;;;;;;1.94;100.00;96557.91;5067542;28;20084;-58
2023/01/21 01:38:52;;;;;;;0.40;0.40;;;;;;;2.04;100.00;96568.50;5067959;28;20098;-57
2023/01/21 01:41:26;;;;;;;0.50;0.50;;;;;;;2.06;100.00;96571.69;5067572;28;20080;-60
2023/01/21 01:44:05;;;;;;;1.05;0.73;;;;;;;2.04;100.00;96573.94;5067499;28;20048;-60
2023/01/21 01:46:35;;;;;;;0.40;0.40;;;;;;;1.50;100.00;96521.75;5066975;28;20056;-60
2023/01/21 01:49:08;;;;;;;0.70;0.70;;;;;;;1.98;100.00;96569.78;5067912;28;20102;-57
2023/01/21 01:51:43;;;;;;;0.40;0.40;;;;;;;2.09;100.00;96576.47;5065802;28;20492;-57
2023/01/21 01:54:14;;;;;;;0.40;0.40;;;;;;;1.14;100.00;96480.44;5067581;28;20048;-60
2023/01/21 01:56:45;;;;;;;0.40;0.40;;;;;;;2.02;100.00;96570.75;5065724;28;20095;-57
2023/01/21 01:59:12;;;;;;;0.30;0.30;;;;;;;2.01;100.00;96563.69;5067498;28;20080;-58
2023/01/21 02:01:38;;;;;;;0.95;0.95;;;;;;;1.91;100.00;96551.19;5067275;28;20132;-60
2023/01/21 02:04:08;;;;;;;0.40;0.40;;;;;;;2.02;100.00;96576.19;5067185;28;20118;-61
2023/01/21 02:06:36;;;;;;;0.40;0.40;;;;;;;2.07;100.00;96576.03;5065202;28;20780;-59
2023/01/21 02:09:03;;;;;;;0.30;0.30;;;;;;;2.04;100.00;96563.03;5067098;28;20139;-60
2023/01/21 02:11:30;;;;;;;0.30;0.30;;;;;;;2.03;100.00;96566.88;5066592;28;20053;-57
2023/01/21 02:13:58;;;;;;;0.40;0.40;;;;;;;1.91;100.00;96548.47;5067451;28;20044;-56
2023/01/21 02:16:40;;;;;;;0.43;0.43;;;;;;;2.03;100.00;96562.22;5066589;28;20053;-59
2023/01/21 02:19:22;;;;;;;0.30;0.30;;;;;;;1.97;100.00;96562.72;5067273;28;20075;-60
2023/01/21 02:22:06;;;;;;;0.40;0.40;;;;;;;1.90;100.00;96565.19;5066797;28;20048;-56
2023/01/21 02:24:55;;;;;;;0.30;0.30;;;;;;;1.87;100.00;96569.34;5065306;28;20114;-60
2023/01/21 02:27:43;;;;;;;0.60;0.60;;;;;;;1.82;100.00;96576.91;5066184;28;20507;-57
2023/01/21 02:30:22;;;;;;;1.02;1.02;;;;;;;1.84;100.00;96569.19;5066885;28;20098;-57
2023/01/21 02:33:30;;;;;;;0.40;0.40;;;;;;;1.84;100.00;96552.81;5067135;28;20083;-57
2023/01/21 02:36:18;;;;;;;0.30;0.30;;;;;;;1.82;100.00;96555.09;5065405;28;20056;-60
2023/01/21 02:39:07;;;;;;;0.30;0.30;;;;;;;1.86;100.00;96554.09;5065418;28;20137;-60
2023/01/21 02:42:02;;;;;;;0.30;0.30;;;;;;;1.86;100.00;96556.03;5066163;28;20060;-60
2023/01/21 02:44:37;;;;;;;0.70;0.70;;;;;;;1.93;100.00;96583.63;5061558;28;20400;-60
2023/01/21 02:47:27;;;;;;;0.30;0.30;;;;;;;1.87;100.00;96563.88;5046220;28;20056;-59
2023/01/21 02:50:01;;;;;;;1.13;1.13;;;;;;;1.78;100.00;96571.31;5046765;28;20130;-60
2023/01/21 02:52:28;;;;;;;0.40;0.40;;;;;;;1.84;100.00;96563.72;5046195;28;20053;-57
2023/01/21 02:54:57;;;;;;;0.30;0.30;;;;;;;1.82;100.00;96576.91;5045181;28;20502;-58
2023/01/21 02:57:52;;;;;;;0.40;0.40;;;;;;;1.89;100.00;96571.75;5046047;28;20082;-57
2023/01/21 03:00:25;;;;;;;0.30;0.30;;;;;;;1.80;100.00;96562.78;5046437;28;20049;-57
2023/01/21 03:03:27;;;;;;;0.40;0.40;;;;;;;1.72;100.00;96539.03;5044642;28;20048;-60
2023/01/21 03:06:20;;;;;;;4.18;2.25;;;;;;;1.83;100.00;96567.59;5045417;28;20429;-56
2023/01/21 03:09:04;;;;;;;0.40;0.40;;;;;;;1.81;100.00;96553.47;5037456;28;20068;-61
2023/01/21 03:11:31;;;;;;;5.80;1.95;;;;;;;1.34;100.00;96479.75;5044553;28;20045;-59
2023/01/21 03:17:18;;;;;;;0.75;0.75;;;;;;;1.82;100.00;96552.34;5045941;28;20160;-57
2023/01/21 03:19:58;;;;;;;0.50;0.50;;;;;;;1.02;100.00;96444.88;5046181;28;20048;-56
2023/01/21 03:22:28;;;;;;;1.10;0.75;;;;;;;1.72;100.00;96555.41;5045679;28;20080;-60
2023/01/21 03:24:57;;;;;;;1.05;1.05;;;;;;;1.56;100.00;96525.13;5045879;28;20049;-60
2023/01/21 03:27:27;;;;;;;1.23;1.23;;;;;;;1.74;100.00;96561.38;5044974;28;20570;-57
2023/01/21 03:30:02;;;;;;;1.20;1.10;;;;;;;1.52;100.00;96522.25;5045971;28;20594;-60
2023/01/21 03:32:31;;;;;;;0.30;0.30;;;;;;;1.78;100.00;96543.19;5045408;28;20049;-60
2023/01/21 03:35:02;;;;;;;0.47;0.47;;;;;;;1.42;100.00;96481.66;5045710;28;20053;-60
2023/01/21 03:37:59;;;;;;;0.30;0.30;;;;;;;1.97;100.00;96568.19;5045279;28;20084;-59
2023/01/21 03:40:34;;;;;;;0.50;0.50;;;;;;;1.46;100.00;96493.53;5044828;28;20053;-57
2023/01/21 03:43:02;;;;;;;3.75;2.30;;;;;;;1.63;100.00;96513.72;5045447;28;20053;-59
2023/01/21 03:45:53;;;;;;;0.40;0.40;;;;;;;2.17;100.00;96583.84;5060364;28;20053;-59
2023/01/21 03:48:31;;;;;;;0.40;0.40;;;;;;;1.95;100.00;96521.28;5065297;28;20408;-58
2023/01/21 03:51:05;;;;;;;0.70;0.70;;;;;;;1.76;100.00;96510.75;5065520;28;20088;-58
2023/01/21 03:53:32;;;;;;;0.70;0.70;;;;;;;2.25;100.00;96578.34;5063954;28;20102;-57
2023/01/21 03:55:59;;;;;;;0.30;0.30;;;;;;;1.92;100.00;96538.31;5065990;28;20417;-60
2023/01/21 03:58:26;;;;;;;0.30;0.30;;;;;;;2.29;100.00;96575.78;5065408;28;20491;-59
2023/01/21 04:00:53;;;;;;;0.30;0.30;;;;;;;2.42;100.00;96575.53;5065307;28;20053;-57
2023/01/21 04:03:20;;;;;;;1.10;1.10;;;;;;;2.39;100.00;96554.31;5063768;28;20078;-57
2023/01/21 04:05:46;;;;;;;0.40;0.40;;;;;;;2.23;100.00;96528.69;5065437;28;20420;-62
2023/01/21 04:08:13;;;;;;;0.40;0.40;;;;;;;2.67;100.00;96628.47;5064574;28;20087;-60
2023/01/21 04:10:40;;;;;;;0.60;0.60;;;;;;;2.67;100.00;96582.78;5063821;28;20091;-60
2023/01/21 04:13:06;;;;;;;0.40;0.40;;;;;;;2.78;100.00;96583.22;5064867;28;20132;-60
2023/01/21 04:15:33;;;;;;;0.40;0.40;;;;;;;2.48;100.00;96524.22;5064680;28;20119;-60
2023/01/21 04:17:59;;;;;;;0.50;0.50;;;;;;;2.66;100.00;96585.84;5064805;28;20109;-60
2023/01/21 04:20:26;;;;;;;0.45;0.45;;;;;;;2.80;100.00;96597.34;5065007;28;20469;-60
2023/01/21 04:22:53;;;;;;;0.40;0.40;;;;;;;2.69;100.00;96590.66;5064235;28;20048;-58
2023/01/21 04:25:19;;;;;;;0.32;0.32;;;;;;;2.43;100.00;96549.00;5064720;28;20469;-60
2023/01/21 04:27:46;;;;;;;0.60;0.60;;;;;;;2.88;100.00;96591.81;5064295;28;20053;-61
2023/01/21 04:30:12;;;;;;;0.40;0.40;;;;;;;2.49;100.00;96510.22;5064627;28;20076;-61
2023/01/21 04:32:39;;;;;;;0.40;0.40;;;;;;;2.92;100.00;96551.72;5064169;28;20052;-57
2023/01/21 04:35:06;;;;;;;0.40;0.40;;;;;;;3.15;100.00;96587.75;5063283;28;20131;-59
2023/01/21 04:37:33;;;;;;;0.40;0.40;;;;;;;3.16;100.00;96589.38;5063961;28;20485;-59
2023/01/21 04:39:59;;;;;;;1.08;0.98;;;;;;;3.32;100.00;96582.13;5064816;28;20055;-63
2023/01/21 04:42:26;;;;;;;2.30;1.05;;;;;;;3.30;100.00;96589.09;5064219;28;20075;-61
2023/01/21 04:44:52;;;;;;;0.40;0.40;;;;;;;3.30;100.00;96603.59;5064496;28;20078;-63
2023/01/21 04:47:19;;;;;;;0.63;0.63;;;;;;;3.25;100.00;96587.38;5064179;28;20048;-62
2023/01/21 04:49:47;;;;;;;0.40;0.40;;;;;;;3.38;100.00;96605.47;5064467;28;20128;-59
2023/01/21 04:52:14;;;;;;;1.05;1.05;;;;;;;3.18;100.00;96608.97;5063729;28;20522;-58
2023/01/21 04:54:40;;;;;;;0.43;0.43;;;;;;;3.25;100.00;96598.31;5062838;28;20051;-58
2023/01/21 04:57:07;;;;;;;0.40;0.40;;;;;;;3.27;100.00;96612.47;5063454;28;20587;-60
2023/01/21 04:59:34;;;;;;;0.40;0.40;;;;;;;3.36;100.00;96624.16;5062737;28;20117;-56
2023/01/21 05:02:00;;;;;;;0.40;0.40;;;;;;;2.88;100.00;96578.16;5062474;28;20091;-59
2023/01/21 05:04:27;;;;;;;1.73;1.63;;;;;;;2.05;100.00;96482.69;5044412;28;20500;-56
2023/01/21 05:06:54;;;;;;;3.92;2.70;;;;;;;2.87;100.00;96653.13;5044249;28;20482;-60
2023/01/21 05:09:21;;;;;;;1.05;1.05;;;;;;;2.81;100.00;96637.25;5044439;28;20056;-60
2023/01/21 05:11:47;;;;;;;0.40;0.40;;;;;;;2.83;100.00;96673.25;5044283;28;20049;-58
2023/01/21 05:14:14;;;;;;;0.40;0.40;;;;;;;2.67;100.00;96603.88;5044003;28;20126;-62
2023/01/21 05:16:41;;;;;;;0.40;0.40;;;;;;;2.56;100.00;96597.97;5042740;28;20053;-57
2023/01/21 05:19:07;;;;;;;0.40;0.40;;;;;;;3.04;100.00;96668.63;5043992;28;20068;-58
2023/01/21 05:21:34;;;;;;;0.40;0.40;;;;;;;3.11;100.00;96668.91;5059123;28;20060;-57
2023/01/21 05:24:01;;;;;;;0.40;0.40;;;;;;;3.10;100.00;96648.16;5043706;28;20404;-57
2023/01/21 05:26:28;;;;;;;1.02;1.02;;;;;;;2.55;100.00;96573.69;5058684;28;20068;-57
2023/01/21 05:28:54;;;;;;;0.40;0.40;;;;;;;3.08;100.00;96675.06;5043816;28;20165;-61
2023/01/21 05:31:21;;;;;;;0.50;0.50;;;;;;;3.07;100.00;96652.34;5043814;28;20049;-60
2023/01/21 05:33:48;;;;;;;0.40;0.40;;;;;;;3.13;100.00;96655.69;5042135;28;20135;-57
2023/01/21 05:36:14;;;;;;;0.80;0.80;;;;;;;3.24;100.00;96670.56;5043602;28;20045;-61
2023/01/21 05:38:41;;;;;;;22.77;4.25;;;;;;;3.29;100.00;96672.34;5043571;28;20115;-59
2023/01/21 05:41:07;;;;;;;0.60;0.60;;;;;;;3.20;100.00;96661.44;5043606;28;20361;-60
2023/01/21 05:43:34;;;;;;;0.40;0.40;;;;;;;3.34;100.00;96678.41;5043526;28;20045;-61
2023/01/21 05:46:01;;;;;;;2.30;2.10;;;;;;;3.46;100.00;96675.75;5076275;28;20084;-60
2023/01/21 05:48:31;;;;;;;0.60;0.60;;;;;;;3.13;100.00;96639.28;5063098;28;20067;-60
2023/01/21 05:50:57;;;;;;;1.05;0.80;;;;;;;3.43;100.00;96673.66;5063574;28;20048;-57
2023/01/21 05:53:25;;;;;;;0.93;0.93;;;;;;;3.45;100.00;96687.81;5058253;28;20535;-59
2023/01/21 05:55:56;;;;;;;0.40;0.40;;;;;;;2.60;100.00;96554.38;5042297;28;20120;-59
2023/01/21 05:58:24;;;;;;;3.08;2.88;;;;;;;3.37;100.00;96693.38;5043634;28;20045;-57
2023/01/21 06:00:50;;;;;;;0.50;0.50;;;;;;;3.46;100.00;96697.66;5043127;28;20049;-56
2023/01/21 06:03:17;;;;;;;0.45;0.45;;;;;;;3.43;100.00;96679.13;5044646;28;20131;-59
2023/01/21 06:05:45;;;;;;;5.25;3.80;;;;;;;3.58;100.00;96705.94;5045838;28;20135;-57
2023/01/21 06:08:12;;;;;;;0.65;0.65;;;;;;;3.58;100.00;96730.56;5046575;28;20579;-59
2023/01/21 06:10:39;;;;;;;0.50;0.50;;;;;;;3.71;100.00;96704.88;5045712;28;20130;-59
2023/01/21 06:13:05;;;;;;;0.82;0.82;;;;;;;3.75;100.00;96689.38;5047101;28;20060;-59
2023/01/21 06:15:32;;;;;;;2.65;1.98;;;;;;;3.51;100.00;96661.84;5046551;28;20315;-59
2023/01/21 06:17:59;;;;;;;2.00;2.00;;;;;;;3.61;100.00;96683.34;5046840;28;20153;-60
2023/01/21 06:20:29;;;;;;;0.50;0.50;;;;;;;3.72;100.00;96687.28;5046649;28;20357;-59
2023/01/21 06:22:57;;;;;;;2.92;1.35;;;;;;;4.03;100.00;96715.03;5047279;28;20048;-59
2023/01/21 06:25:24;;;;;;;2.55;0.80;;;;;;;2.52;100.00;96470.50;5046821;28;20044;-57
2023/01/21 06:27:54;;;;;;;1.25;1.20;;;;;;;4.12;100.00;96714.97;5045228;28;20070;-60
2023/01/21 06:30:22;;;;;;;2.28;2.08;;;;;;;4.02;100.00;96729.09;5046833;28;20114;-60
2023/01/21 06:32:49;;;;;;;0.50;0.50;;;;;;;3.75;100.00;96689.38;5046586;28;20127;-60
2023/01/21 06:35:16;;;;;;;1.48;1.42;;;;;;;4.14;100.00;96712.72;5046763;28;20049;-61
2023/01/21 06:37:44;;;;;;;0.50;0.50;;;;;;;4.21;100.00;96730.22;5046766;28;20053;-61
2023/01/21 06:40:12;;;;;;;0.40;0.40;;;;;;;4.28;100.00;96719.47;5046387;28;20980;-60
2023/01/21 06:42:38;;;;;;;2.53;1.45;;;;;;;4.28;100.00;96708.50;5053521;28;20037;-57
2023/01/21 06:45:06;;;;;;;0.82;0.82;;;;;;;4.26;100.00;96713.56;5059972;28;20102;-59
2023/01/21 06:47:32;;;;;;;0.65;0.65;;;;;;;3.96;100.00;96667.41;5056358;28;20080;-57
2023/01/21 06:49:59;;;;;;;0.88;0.88;;;;;;;3.89;100.00;96648.78;5050140;28;20432;-61
2023/01/21 06:52:25;;;;;;;3.90;1.52;;;;;;;4.38;100.00;96716.31;5062248;28;20477;-58
2023/01/21 06:54:52;;;;;;;1.67;1.63;;;;;;;4.62;100.00;96735.59;5063724;28;20105;-56
2023/01/21 06:57:19;;;;;;;1.05;1.05;;;;;;;4.67;100.00;96737.31;5060889;28;20084;-56
2023/01/21 06:59:45;;;;;;;2.47;1.20;;;;;;;4.29;100.00;96660.78;5066143;28;20151;-62
2023/01/21 07:02:12;;;;;;;0.57;0.57;;;;;;;4.80;100.00;96729.91;5063939;28;20048;-58
2023/01/21 07:04:38;;;;;;;0.40;0.40;;;;;;;4.85;100.00;96726.94;5064016;28;20049;-57
2023/01/21 07:07:05;;;;;;;0.60;0.60;;;;;;;4.89;100.00;96738.81;5064609;28;20676;-60
2023/01/21 07:09:32;;;;;;;0.50;0.50;;;;;;;4.59;100.00;96688.84;5062745;28;20079;-56
2023/01/21 07:11:59;;;;;;;0.75;0.75;;;;;;;5.09;100.00;96721.47;5050435;28;20040;-57
2023/01/21 07:14:25;;;;;;;2.45;2.25;;;;;;;4.36;100.00;96600.69;5056526;28;20215;-62
2023/01/21 07:16:52;;;;;;;1.80;1.75;;;;;;;5.33;100.00;96721.44;5049315;28;20040;-56
2023/01/21 07:19:19;;;;;;;1.63;1.52;;;;;;;5.35;100.00;96698.00;5053697;28;20067;-55
2023/01/21 07:21:45;;;;;;;0.50;0.50;;;;;;;5.63;100.00;96714.53;5047511;28;20424;-56
2023/01/21 07:24:12;;;;;;;2.85;2.65;;;;;;;5.26;100.00;96655.34;5057363;28;20083;-60
2023/01/21 07:26:40;;;;;;;0.70;0.70;;;;;;;5.68;100.00;96717.06;5046061;28;20136;-58
2023/01/21 07:29:07;;;;;;;0.70;0.70;;;;;;;5.79;100.00;96724.47;5063885;28;20146;-55
2023/01/21 07:31:34;;;;;;;0.80;0.80;;;;;;;5.36;100.00;96693.31;5059710;28;20048;-57
2023/01/21 07:34:01;;;;;;;1.00;0.95;;;;;;;5.55;100.00;96751.19;5052818;28;20064;-58
2023/01/21 07:36:27;;;;;;;0.60;0.60;;;;;;;5.72;100.00;96745.44;5044931;28;20345;-56
2023/01/21 07:38:55;;;;;;;0.47;0.47;;;;;;;5.44;100.00;96697.88;5052241;28;20053;-55
2023/01/21 07:41:22;;;;;;;0.60;0.60;;;;;;;5.77;100.00;96747.97;5063423;28;20040;-60
2023/01/21 07:43:49;;;;;;;0.50;0.50;;;;;;;5.68;100.00;96741.78;5060121;28;20503;-58
2023/01/21 07:46:20;;;;;;;3.22;2.35;;;;;;;5.84;100.00;96753.69;5055867;28;20659;-57
2023/01/21 07:48:47;;;;;;;0.50;0.50;;;;;;;5.67;100.00;96754.75;5045457;28;20048;-59
2023/01/21 07:51:14;;;;;;;1.88;1.33;;;;;;;5.80;100.00;96752.78;5044595;28;20129;-60
2023/01/21 07:53:41;;;;;;;0.95;0.95;;;;;;;5.85;100.00;96749.78;5063176;28;20443;-57
2023/01/21 07:56:11;;;;;;;0.50;0.50;;;;;;;5.80;100.00;96744.53;5064285;28;20094;-58
2023/01/21 07:58:37;;;;;;;0.50;0.50;;;;;;;5.75;100.00;96685.09;5064328;28;20087;-62
2023/01/21 08:01:09;;;;;;;0.98;0.98;;;;;;;6.39;100.00;96748.25;5064041;28;20500;-63
2023/01/21 08:03:36;;;;;;;0.50;0.50;;;;;;;6.48;100.00;96740.63;5064078;28;20470;-60
2023/01/21 08:06:05;;;;;;;0.88;0.88;;;;;;;6.56;100.00;96736.91;5062877;28;20063;-58
2023/01/21 08:08:32;;;;;;;0.60;0.60;;;;;;;6.63;100.00;96736.31;5063623;28;20053;-63
2023/01/21 08:10:59;;;;;;;0.60;0.60;;;;;;;6.58;100.00;96696.09;5063995;28;20416;-61
2023/01/21 08:13:25;;;;;;;0.60;0.60;;;;;;;6.80;100.00;96735.97;5064227;28;20489;-63
2023/01/21 08:15:55;;;;;;;0.50;0.50;;;;;;;6.98;100.00;96732.56;5064255;28;20071;-64
2023/01/21 08:18:23;;;;;;;0.60;0.60;;;;;;;6.99;100.00;96734.16;5048842;28;20486;-63
2023/01/21 08:20:54;;;;;;;0.60;0.60;;;;;;;7.09;99.31;96708.84;5044341;28;20057;-63
2023/01/21 08:23:21;;;;;;;0.70;0.70;;;;;;;7.40;99.61;96739.09;5043991;28;20048;-63
2023/01/21 08:25:48;;;;;;;0.60;0.60;;;;;;;7.00;97.67;96686.16;5041642;28;20488;-64
2023/01/21 08:28:15;;;;;;;0.70;0.70;;;;;;;7.57;96.79;96727.69;5043752;28;20067;-58
2023/01/21 08:30:42;;;;;;;0.75;0.75;;;;;;;6.79;96.01;96625.09;5044127;28;20053;-64
2023/01/21 08:33:08;;;;;;;1.50;1.50;;;;;;;7.39;96.14;96732.00;5043396;28;20053;-63
2023/01/21 08:35:35;;;;;;;0.77;0.77;;;;;;;7.34;96.61;96751.56;5044096;28;20085;-58
2023/01/21 08:38:02;;;;;;;2.47;2.38;;;;;;;7.20;96.58;96744.91;5055017;28;20048;-64
2023/01/21 08:40:28;;;;;;;0.70;0.70;;;;;;;6.86;97.61;96724.34;5062082;28;20061;-64
2023/01/21 08:43:00;;;;;;;0.82;0.82;;;;;;;6.60;97.39;96682.81;5063846;28;20052;-63
2023/01/21 08:45:27;;;;;;;0.70;0.70;;;;;;;6.78;96.79;96697.03;5063679;28;20630;-57
2023/01/21 08:47:54;;;;;;;0.60;0.60;;;;;;;7.15;96.97;96732.19;5052090;28;20114;-64
2023/01/21 08:50:22;;;;;;;0.85;0.85;;;;;;;7.12;96.67;96716.38;5043714;28;20060;-58
2023/01/21 08:52:53;;;;;;;0.70;0.70;;;;;;;7.14;96.24;96718.78;5047276;28;20135;-57
2023/01/21 08:55:23;;;;;;;0.60;0.60;;;;;;;6.34;94.62;96586.22;5043020;28;20106;-60
2023/01/21 08:57:52;;;;;;;0.98;0.98;;;;;;;6.99;97.56;96725.88;5053682;28;20454;-61
2023/01/21 09:00:20;;;;;;;0.60;0.60;;;;;;;7.05;99.01;96715.41;5047090;28;20052;-58
2023/01/21 09:02:47;;;;;;;1.40;1.40;;;;;;;7.31;97.83;96713.72;5045674;28;20118;-60
2023/01/21 09:05:17;;;;;;;4.95;3.97;;;;;;;7.09;94.92;96662.03;5048802;28;20056;-64
2023/01/21 09:07:44;;;;;;;0.80;0.80;;;;;;;7.61;94.27;96706.53;5058248;28;20541;-59
2023/01/21 09:10:12;;;;;;;0.70;0.70;;;;;;;7.54;95.26;96667.78;5057462;28;20075;-62
2023/01/21 09:12:41;;;;;;;0.70;0.70;;;;;;;7.86;93.50;96698.00;5049624;28;20052;-59
2023/01/21 09:15:08;;;;;;;1.95;1.88;;;;;;;7.87;92.19;96702.38;5061246;28;20392;-57
2023/01/21 09:17:35;;;;;;;1.70;1.70;;;;;;;7.51;92.69;96704.34;5055222;28;20479;-59
2023/01/21 09:20:02;;;;;;;4.18;2.28;;;;;;;7.51;94.37;96690.56;5057222;28;20071;-59
2023/01/21 09:22:28;;;;;;;1.55;1.55;;;;;;;7.27;94.52;96643.94;5045795;28;20037;-59
2023/01/21 09:24:55;;;;;;;0.70;0.70;;;;;;;7.31;95.36;96680.66;5044421;28;20405;-57
2023/01/21 09:27:26;;;;;;;0.70;0.70;;;;;;;7.57;97.07;96694.63;5044529;28;20087;-57
2023/01/21 09:29:53;;;;;;;0.60;0.60;;;;;;;7.32;97.10;96643.66;5043275;28;20140;-57
2023/01/21 09:32:20;;;;;;;1.42;1.42;;;;;;;7.40;97.47;96681.25;5054297;28;20189;-59
2023/01/21 09:34:46;;;;;;;0.60;0.60;;;;;;;7.56;97.10;96687.53;5052292;28;20084;-57
2023/01/21 09:37:13;;;;;;;0.80;0.80;;;;;;;7.53;94.74;96682.75;5050412;28;20059;-59
2023/01/21 09:39:39;;;;;;;0.70;0.70;;;;;;;7.54;95.85;96684.31;5061451;28;20106;-60
2023/01/21 09:42:16;;;;;;;0.70;0.70;;;;;;;7.34;95.29;96627.59;5062827;28;20056;-58
2023/01/21 09:44:48;;;;;;;0.82;0.82;;;;;;;7.59;93.98;96639.94;5056868;28;20048;-62
2023/01/21 09:47:33;;;;;;;7.85;5.70;;;;;;;7.95;93.79;96684.81;5061979;28;20141;-56
2023/01/21 09:50:10;;;;;;;6.07;5.75;;;;;;;8.26;93.19;96679.19;5057619;28;20075;-59
2023/01/21 09:52:37;;;;;;;0.70;0.70;;;;;;;8.49;92.19;96669.78;5050872;28;20055;-62
2023/01/21 09:55:11;;;;;;;0.70;0.70;;;;;;;8.76;90.35;96673.44;5048074;28;20080;-56
2023/01/21 09:57:43;;;;;;;0.80;0.80;;;;;;;9.03;88.03;96677.84;5062007;28;20081;-57
2023/01/21 10:00:28;;;;;;;1.45;1.45;;;;;;;9.23;87.02;96660.06;5061257;28;20107;-59
2023/01/21 10:03:07;;;;;;;0.70;0.70;;;;;;;9.36;84.73;96653.13;5073289;28;20059;-61
2023/01/21 10:05:51;;;;;;;0.70;0.70;;;;;;;9.51;85.22;96654.94;5055015;28;20146;-55
2023/01/21 10:08:36;;;;;;;0.70;0.70;;;;;;;9.67;84.60;96650.03;5060189;28;20150;-55
2023/01/21 10:11:33;;;;;;;0.70;0.70;;;;;;;9.69;83.14;96664.28;5047076;28;20053;-55
2023/01/21 10:14:18;;;;;;;0.80;0.80;;;;;;;9.42;84.34;96712.44;5061135;28;20052;-58
2023/01/21 10:16:58;;;;;;;1.13;1.13;;;;;;;8.81;86.72;96642.75;5056269;28;20076;-56
2023/01/21 10:19:35;;;;;;;0.70;0.70;;;;;;;8.79;87.92;96628.50;5048865;28;20327;-56
2023/01/21 10:22:16;;;;;;;0.80;0.80;;;;;;;8.84;90.02;96647.53;5047808;28;20087;-56
2023/01/21 10:24:48;;;;;;;1.42;1.38;;;;;;;8.06;92.93;96603.09;5063689;28;20655;-55
2023/01/21 10:27:18;;;;;;;0.77;0.77;;;;;;;8.38;91.52;96612.78;5063954;28;20078;-55
2023/01/21 10:29:49;;;;;;;1.48;1.38;;;;;;;8.28;93.08;96652.03;5064517;28;20504;-57
2023/01/21 10:32:21;;;;;;;1.65;1.55;;;;;;;8.20;94.40;96644.75;5064088;28;20514;-61
2023/01/21 10:34:53;;;;;;;0.70;0.70;;;;;;;7.80;96.05;96580.91;5064350;28;20053;-60
2023/01/21 10:37:25;;;;;;;0.70;0.70;;;;;;;8.39;95.57;96644.75;5064755;28;20052;-55
2023/01/21 10:40:10;;;;;;;0.73;0.73;;;;;;;5.45;94.01;96098.06;5066572;28;20530;-59
2023/01/21 10:43:00;;;;;;;0.70;0.70;;;;;;;9.02;92.24;96621.03;5065856;28;20052;-55
2023/01/21 10:45:42;;;;;;;0.70;0.70;;;;;;;9.25;91.58;96618.22;5066215;28;20052;-60
2023/01/21 10:48:46;;;;;;;1.00;1.00;;;;;;;9.40;90.79;96620.00;5064158;28;20056;-55
2023/01/21 10:51:23;;;;;;;0.77;0.77;;;;;;;9.37;89.71;96566.28;5059301;28;20430;-58
2023/01/21 10:54:19;;;;;;;9.02;2.42;;;;;;;9.91;87.04;96616.38;5061438;28;20519;-61
2023/01/21 10:56:58;;;;;;;1.50;1.42;;;;;;;9.81;87.70;96616.25;5056637;28;20052;-61
2023/01/21 10:59:30;;;;;;;0.80;0.80;;;;;;;9.92;89.79;96626.28;5061788;28;20057;-59
2023/01/21 11:02:26;;;;;;;0.70;0.70;;;;;;;9.66;88.82;96539.81;5065192;28;20426;-58
2023/01/21 11:04:53;;;;;;;0.80;0.80;;;;;;;9.84;88.37;96574.00;5065021;28;20048;-56
2023/01/21 11:07:21;;;;;;;0.77;0.77;;;;;;;10.22;87.66;96618.75;5064985;28;20041;-56
2023/01/21 11:09:49;;;;;;;0.80;0.80;;;;;;;9.63;87.55;96518.41;5063789;28;20438;-56
2023/01/21 11:12:20;;;;;;;0.80;0.80;;;;;;;9.87;89.43;96637.66;5052950;28;20076;-54
2023/01/21 11:14:52;;;;;;;0.70;0.70;;;;;;;9.95;89.21;96617.22;5048961;28;20120;-57
2023/01/21 11:17:33;;;;;;;0.95;0.95;;;;;;;9.95;89.51;96597.84;5049728;28;20044;-59
2023/01/21 11:20:03;;;;;;;0.80;0.80;;;;;;;10.07;89.40;96596.81;5064645;28;20056;-58
2023/01/21 11:22:31;;;;;;;0.73;0.73;;;;;;;9.65;91.44;96533.47;5065255;28;20118;-58
2023/01/21 11:24:59;;;;;;;0.80;0.80;;;;;;;9.86;91.08;96550.34;5065866;28;20706;-61
2023/01/21 11:27:38;;;;;;;0.90;0.90;;;;;;;10.13;91.56;96571.19;5058763;28;20075;-61
2023/01/21 11:30:09;;;;;;;1.45;1.35;;;;;;;8.90;96.02;96546.63;5045297;28;20611;-58
2023/01/21 11:33:17;;;;;;;0.80;0.80;;;;;;;9.50;97.49;96598.03;5056544;28;20049;-63
2023/01/21 11:35:44;;;;;;;0.80;0.80;;;;;;;9.71;97.02;96603.88;5045497;28;20065;-58
2023/01/21 11:38:35;;;;;;;0.80;0.80;;;;;;;9.94;96.24;96607.31;5053403;28;20048;-56
2023/01/21 11:41:14;;;;;;;0.80;0.80;;;;;;;10.16;96.51;96592.56;5064703;28;20060;-63
2023/01/21 11:43:46;;;;;;;0.80;0.80;;;;;;;10.04;94.23;96484.91;5047012;28;20096;-61
2023/01/21 11:46:28;;;;;;;0.80;0.80;;;;;;;11.10;90.05;96571.69;5062459;28;20044;-58
2023/01/21 11:49:07;;;;;;;0.90;0.90;;;;;;;11.13;86.81;96557.09;5061824;28;20059;-57
2023/01/21 11:51:38;;;;;;;0.80;0.80;;;;;;;10.92;87.14;96559.69;5050003;28;20098;-60
2023/01/21 11:54:07;;;;;;;0.80;0.80;;;;;;;10.98;87.57;96567.25;5058672;28;20045;-58
2023/01/21 11:56:35;;;;;;;3.22;1.73;;;;;;;10.86;87.51;96534.31;5045291;28;20126;-55